createdAt,value
2023-07-03T00:00:26.620Z,99.90
2023-07-03T00:02:54.299Z,99.90
2023-07-03T00:05:21.878Z,99.90
2023-07-03T00:07:48.944Z,99.90
2023-07-03T00:10:16.071Z,99.90
2023-07-03T00:12:43.267Z,99.90
2023-07-03T00:15:10.757Z,99.90
2023-07-03T00:17:40.776Z,99.90
2023-07-03T00:20:08.148Z,99.90
2023-07-03T00:22:35.281Z,99.90
2023-07-03T00:25:02.398Z,99.90
2023-07-03T00:27:29.341Z,99.90
2023-07-03T00:29:56.238Z,99.90
2023-07-03T00:32:23.178Z,99.90
2023-07-03T00:34:50.915Z,99.90
2023-07-03T00:37:18.322Z,99.90
2023-07-03T00:39:45.277Z,99.90
2023-07-03T00:42:12.163Z,99.90
2023-07-03T00:44:39.095Z,99.90
2023-07-03T00:47:06.186Z,99.90
2023-07-03T00:49:33.498Z,99.90
2023-07-03T00:52:00.875Z,99.90
2023-07-03T00:54:27.860Z,99.90
2023-07-03T00:56:54.737Z,99.90
2023-07-03T00:59:21.669Z,99.90
2023-07-03T01:02:07.538Z,99.90
2023-07-03T01:04:35.812Z,99.90
2023-07-03T01:07:04.209Z,99.90
2023-07-03T01:09:39.121Z,99.90
2023-07-03T01:12:06.548Z,99.90
2023-07-03T01:14:33.539Z,99.90
2023-07-03T01:17:00.488Z,99.90
2023-07-03T01:19:32.532Z,99.90
2023-07-03T01:22:09.020Z,99.90
2023-07-03T01:24:41.502Z,99.90
2023-07-03T01:27:08.551Z,99.90
2023-07-03T01:29:35.567Z,99.90
2023-07-03T01:32:04.242Z,99.90
2023-07-03T01:34:31.284Z,99.90
2023-07-03T01:36:58.254Z,99.90
2023-07-03T01:39:25.339Z,99.90
2023-07-03T01:41:52.629Z,99.90
2023-07-03T01:44:19.646Z,99.90
2023-07-03T01:46:46.613Z,99.90
2023-07-03T01:49:14.034Z,99.90
2023-07-03T01:51:50.714Z,99.90
2023-07-03T01:54:19.417Z,99.90
2023-07-03T01:56:46.558Z,99.90
2023-07-03T01:59:14.215Z,99.90
2023-07-03T02:01:48.135Z,99.90
2023-07-03T02:04:19.470Z,99.90
2023-07-03T02:06:46.449Z,99.90
2023-07-03T02:09:13.385Z,99.90
2023-07-03T02:11:40.289Z,99.90
2023-07-03T02:14:07.955Z,99.90
2023-07-03T02:16:34.938Z,99.90
2023-07-03T02:19:02.169Z,99.90
2023-07-03T02:21:29.479Z,99.90
2023-07-03T02:23:56.424Z,99.90
2023-07-03T02:26:23.306Z,99.90
2023-07-03T02:28:50.279Z,99.90
2023-07-03T02:31:17.173Z,99.90
2023-07-03T02:33:44.268Z,99.90
2023-07-03T02:36:11.242Z,99.90
2023-07-03T02:38:38.130Z,99.90
2023-07-03T02:41:05.072Z,99.90
2023-07-03T02:43:32.275Z,99.90
2023-07-03T02:46:05.592Z,99.90
2023-07-03T02:48:32.619Z,99.90
2023-07-03T02:50:59.843Z,99.90
2023-07-03T02:53:26.780Z,99.90
2023-07-03T02:55:56.705Z,99.90
2023-07-03T07:58:15.179Z,99.30
2023-07-03T08:00:42.273Z,99.30
2023-07-03T08:03:40.529Z,98.90
2023-07-03T08:06:07.521Z,98.90
2023-07-03T08:08:34.485Z,99.40
2023-07-03T08:11:01.972Z,99.50
2023-07-03T08:13:32.504Z,98.60
2023-07-03T08:15:59.528Z,97.40
2023-07-03T08:18:27.254Z,97.10
2023-07-03T08:20:54.226Z,96.80
2023-07-03T08:23:21.360Z,96.10
2023-07-03T08:29:46.572Z,95.80
2023-07-03T08:32:14.701Z,96.70
2023-07-03T08:37:29.081Z,96.20
2023-07-03T08:39:56.044Z,96.00
2023-07-03T08:42:49.318Z,95.90
2023-07-03T08:45:19.483Z,95.90
2023-07-03T08:47:46.697Z,96.00
2023-07-03T08:50:24.405Z,96.20
2023-07-03T08:53:02.028Z,96.50
2023-07-03T08:55:30.225Z,96.30
2023-07-03T08:57:57.284Z,96.30
2023-07-03T09:00:24.319Z,96.10
2023-07-03T09:03:04.957Z,96.60
2023-07-03T09:05:36.313Z,95.90
2023-07-03T09:08:03.737Z,95.80
2023-07-03T09:10:35.128Z,95.80
2023-07-03T09:13:02.213Z,96.10
2023-07-03T09:15:34.258Z,96.20
2023-07-03T09:18:02.240Z,95.90
2023-07-03T09:20:29.211Z,95.90
2023-07-03T09:22:58.020Z,96.70
2023-07-03T09:25:30.892Z,96.00
2023-07-03T09:27:57.817Z,95.60
2023-07-03T09:30:24.831Z,95.30
2023-07-03T09:32:52.117Z,95.70
2023-07-03T09:35:21.898Z,94.70
2023-07-03T09:37:51.196Z,95.00
2023-07-03T09:40:24.332Z,95.90
2023-07-03T09:42:51.624Z,96.00
2023-07-03T09:45:20.416Z,95.90
2023-07-03T09:51:05.654Z,95.50
2023-07-03T09:53:33.883Z,95.70
2023-07-03T09:56:03.456Z,95.70
2023-07-03T09:58:30.614Z,94.80
2023-07-03T10:00:58.821Z,94.90
2023-07-03T10:03:30.857Z,95.70
2023-07-03T10:08:30.692Z,94.80
2023-07-03T10:13:30.922Z,93.90
2023-07-03T10:15:57.971Z,93.40
2023-07-03T10:18:28.980Z,93.60
2023-07-03T10:20:56.251Z,93.40
2023-07-03T10:23:27.077Z,93.40
2023-07-03T10:25:56.030Z,93.80
2023-07-03T10:28:24.880Z,94.20
2023-07-03T10:30:55.054Z,93.20
2023-07-03T10:33:22.846Z,92.80
2023-07-03T10:35:50.794Z,92.20
2023-07-03T10:38:18.165Z,92.60
2023-07-03T10:40:49.141Z,93.10
2023-07-03T10:43:17.424Z,92.50
2023-07-03T10:45:44.401Z,93.00
2023-07-03T10:48:21.389Z,93.00
2023-07-03T10:50:58.537Z,94.10
2023-07-03T10:53:33.462Z,93.50
2023-07-03T10:56:05.316Z,93.00
2023-07-03T10:58:32.185Z,93.10
2023-07-03T11:01:02.518Z,93.80
2023-07-03T11:03:31.810Z,94.10
2023-07-03T11:08:45.961Z,93.00
2023-07-03T11:11:24.888Z,93.10
2023-07-03T11:13:53.148Z,92.40
2023-07-03T11:16:21.264Z,93.10
2023-07-03T11:24:26.002Z,91.60
2023-07-03T11:29:45.128Z,90.40
2023-07-03T11:32:12.438Z,89.00
2023-07-03T11:40:22.041Z,87.40
2023-07-03T11:45:58.716Z,83.30
2023-07-03T11:48:50.468Z,82.90
2023-07-03T11:51:34.117Z,85.90
2023-07-03T11:54:05.814Z,86.60
2023-07-03T11:59:36.386Z,86.30
2023-07-03T12:02:13.010Z,84.70
2023-07-03T12:04:45.456Z,85.80
2023-07-03T12:07:20.453Z,86.00
2023-07-03T12:09:48.382Z,84.70
2023-07-03T12:12:22.263Z,84.40
2023-07-03T12:15:00.861Z,84.70
2023-07-03T12:17:32.029Z,85.30
2023-07-03T12:23:36.158Z,83.40
2023-07-03T12:26:07.833Z,83.40
2023-07-03T12:28:35.351Z,82.50
2023-07-03T12:31:16.136Z,80.80
2023-07-03T12:33:53.629Z,81.10
2023-07-03T12:36:21.701Z,79.00
2023-07-03T12:38:48.783Z,78.20
2023-07-03T12:41:17.466Z,78.20
2023-07-03T12:43:50.891Z,77.90
2023-07-03T12:49:57.327Z,75.10
2023-07-03T12:52:25.346Z,76.10
2023-07-03T12:54:58.621Z,76.20
2023-07-03T12:57:35.923Z,75.60
2023-07-03T13:00:03.102Z,77.00
2023-07-03T13:02:30.421Z,76.80
2023-07-03T13:04:58.755Z,77.50
2023-07-03T13:07:25.895Z,77.70
2023-07-03T13:09:54.196Z,77.70
2023-07-03T13:12:22.349Z,77.70
2023-07-03T13:15:10.609Z,78.80
2023-07-03T13:17:41.785Z,78.50
2023-07-03T13:20:28.105Z,78.70
2023-07-03T13:22:56.703Z,79.20
2023-07-03T13:25:30.823Z,79.30
2023-07-03T13:27:58.268Z,78.20
2023-07-03T13:30:31.011Z,76.90
2023-07-03T13:33:06.198Z,77.10
2023-07-03T13:35:46.490Z,78.10
2023-07-03T13:38:25.319Z,77.70
2023-07-03T13:40:59.926Z,76.70
2023-07-03T13:43:31.274Z,77.60
2023-07-03T13:45:58.898Z,78.10
2023-07-03T13:48:26.412Z,77.80
2023-07-03T13:50:54.108Z,80.00
2023-07-03T13:53:21.784Z,80.70
2023-07-03T13:55:49.493Z,80.20
2023-07-03T13:58:17.011Z,80.30
2023-07-03T14:00:44.111Z,80.50
2023-07-03T14:03:14.991Z,79.50
2023-07-03T14:05:42.262Z,79.40
2023-07-03T14:08:09.370Z,78.80
2023-07-03T14:10:36.299Z,78.60
2023-07-03T14:13:04.009Z,78.70
2023-07-03T14:15:31.939Z,79.20
2023-07-03T14:17:59.352Z,79.30
2023-07-03T14:20:38.959Z,78.80
2023-07-03T14:23:06.942Z,78.10
2023-07-03T14:25:36.636Z,79.20
2023-07-03T14:28:04.444Z,78.20
2023-07-03T14:30:31.488Z,78.10
2023-07-03T14:32:58.628Z,78.30
2023-07-03T14:35:29.099Z,77.70
2023-07-03T14:37:56.191Z,77.10
2023-07-03T14:40:23.170Z,77.60
2023-07-03T14:42:52.376Z,78.90
2023-07-03T14:45:21.274Z,78.20
2023-07-03T14:47:53.709Z,78.30
2023-07-03T14:50:24.281Z,78.00
2023-07-03T14:52:51.528Z,79.20
2023-07-03T14:55:21.181Z,79.80
2023-07-03T14:57:50.118Z,80.40
2023-07-03T15:00:26.492Z,79.60
2023-07-03T15:02:56.911Z,81.00
2023-07-03T15:05:24.100Z,79.30
2023-07-03T15:07:53.300Z,79.60
2023-07-03T15:10:20.901Z,80.50
2023-07-03T15:13:01.322Z,80.00
2023-07-03T15:15:28.360Z,80.00
2023-07-03T15:17:55.501Z,80.80
2023-07-03T15:20:22.617Z,81.20
2023-07-03T15:22:54.262Z,80.80
2023-07-03T15:25:21.729Z,81.10
2023-07-03T15:27:51.078Z,81.40
2023-07-03T15:30:18.629Z,82.20
2023-07-03T15:32:49.777Z,82.00
2023-07-03T15:35:16.768Z,81.10
2023-07-03T15:37:44.176Z,80.70
2023-07-03T15:40:11.474Z,81.50
2023-07-03T15:42:39.668Z,82.30
2023-07-03T15:45:07.291Z,82.60
2023-07-03T15:47:38.083Z,81.50
2023-07-03T15:50:06.867Z,81.50
2023-07-03T15:52:34.089Z,82.30
2023-07-03T15:55:05.549Z,81.90
2023-07-03T15:57:32.576Z,82.20
2023-07-03T16:00:00.912Z,82.70
2023-07-03T16:02:28.097Z,82.90
2023-07-03T16:04:56.308Z,83.40
2023-07-03T16:07:23.982Z,84.30
2023-07-03T16:09:50.989Z,84.20
2023-07-03T16:12:18.412Z,84.60
2023-07-03T16:14:48.044Z,84.80
2023-07-03T16:17:15.424Z,85.20
2023-07-03T16:19:44.923Z,85.50
2023-07-03T16:22:11.840Z,85.40
2023-07-03T16:24:39.238Z,85.20
2023-07-03T16:27:06.917Z,85.60
2023-07-03T16:29:33.914Z,85.00
2023-07-03T16:32:00.916Z,85.00
2023-07-03T16:34:27.905Z,85.40
2023-07-03T16:36:54.855Z,85.50
2023-07-03T16:39:21.765Z,85.80
2023-07-03T16:41:48.692Z,85.80
2023-07-03T16:44:15.667Z,85.90
2023-07-03T16:46:42.608Z,86.00
2023-07-03T16:49:09.652Z,86.30
2023-07-03T16:51:36.901Z,86.20
2023-07-03T16:54:03.955Z,86.70
2023-07-03T16:56:30.962Z,86.60
2023-07-03T16:59:00.939Z,86.10
2023-07-03T17:01:28.702Z,86.20
2023-07-03T17:03:56.990Z,86.10
2023-07-03T17:06:30.486Z,86.20
2023-07-03T17:08:57.664Z,86.60
2023-07-03T17:11:24.633Z,86.70
2023-07-03T17:13:51.770Z,86.60
2023-07-03T17:16:19.176Z,86.00
2023-07-03T17:18:46.226Z,86.50
2023-07-03T17:21:13.222Z,86.80
2023-07-03T17:23:40.149Z,87.10
2023-07-03T17:26:07.223Z,87.30
2023-07-03T17:28:34.223Z,86.90
2023-07-03T17:31:03.537Z,86.30
2023-07-03T17:33:30.672Z,87.30
2023-07-03T17:35:57.698Z,87.80
2023-07-03T17:38:24.753Z,88.20
2023-07-03T17:40:51.717Z,88.90
2023-07-03T17:43:23.959Z,89.20
2023-07-03T17:45:52.192Z,89.40
2023-07-03T17:48:19.915Z,90.20
2023-07-03T17:50:47.994Z,90.20
2023-07-03T17:53:18.150Z,90.30
2023-07-03T17:55:45.758Z,90.40
2023-07-03T17:58:12.737Z,90.50
2023-07-03T18:00:39.691Z,90.70
2023-07-03T18:03:06.931Z,90.80
2023-07-03T18:05:36.734Z,91.10
2023-07-03T18:08:04.135Z,91.30
2023-07-03T18:10:31.777Z,91.60
2023-07-03T18:13:01.926Z,91.80
2023-07-03T18:15:54.662Z,92.00
2023-07-03T18:18:23.717Z,92.10
2023-07-03T18:20:51.271Z,92.40
2023-07-03T18:23:18.498Z,92.60
2023-07-03T18:25:46.898Z,92.80
2023-07-03T18:28:21.943Z,93.00
2023-07-03T18:31:03.555Z,93.10
2023-07-03T18:33:34.861Z,93.00
2023-07-03T18:36:02.346Z,92.90
2023-07-03T18:38:31.464Z,93.20
2023-07-03T18:41:05.167Z,93.50
2023-07-03T18:43:34.472Z,93.80
2023-07-03T18:46:01.444Z,93.90
2023-07-03T18:48:28.493Z,93.90
2023-07-03T18:50:55.748Z,93.90
2023-07-03T18:53:22.782Z,94.00
2023-07-03T18:55:53.243Z,94.20
2023-07-03T18:58:20.884Z,94.30
2023-07-03T19:00:48.129Z,94.60
2023-07-03T19:03:15.389Z,94.70
2023-07-03T19:05:51.430Z,94.90
2023-07-03T19:08:19.526Z,94.80
2023-07-03T19:10:47.428Z,94.70
2023-07-03T19:13:14.838Z,94.80
2023-07-03T19:15:42.143Z,94.90
2023-07-03T19:18:10.087Z,95.10
2023-07-03T19:20:37.612Z,95.30
2023-07-03T19:23:07.307Z,95.50
2023-07-03T19:25:35.339Z,95.70
2023-07-03T19:28:02.597Z,95.80
2023-07-03T19:30:29.525Z,95.90
2023-07-03T19:32:56.740Z,96.10
2023-07-03T19:35:23.788Z,96.20
2023-07-03T19:37:52.048Z,96.40
2023-07-03T19:40:19.026Z,96.60
2023-07-03T19:42:46.215Z,96.70
2023-07-03T19:45:13.411Z,96.70
2023-07-03T19:47:40.605Z,96.60
2023-07-03T19:50:11.431Z,96.60
2023-07-03T19:52:38.748Z,96.80
2023-07-03T19:55:13.969Z,96.90
2023-07-03T19:57:42.207Z,97.00
2023-07-03T20:00:13.110Z,97.10
2023-07-03T20:02:41.274Z,97.10
2023-07-03T20:05:11.452Z,97.20
2023-07-03T20:07:38.488Z,97.20
2023-07-03T20:10:05.745Z,97.20
2023-07-03T20:12:32.751Z,97.30
2023-07-03T20:14:59.753Z,97.50
2023-07-03T20:17:27.266Z,97.60
2023-07-03T20:19:57.908Z,97.70
2023-07-03T20:22:25.232Z,97.70
2023-07-03T20:24:52.353Z,98.00
2023-07-03T20:27:19.329Z,98.10
2023-07-03T20:29:50.753Z,98.20
2023-07-03T20:32:18.286Z,98.20
2023-07-03T20:34:54.126Z,98.30
2023-07-03T20:37:21.364Z,98.40
2023-07-03T20:39:48.499Z,98.50
2023-07-03T20:42:15.489Z,98.40
2023-07-03T20:44:46.846Z,98.50
2023-07-03T20:47:13.904Z,98.50
2023-07-03T20:49:42.693Z,98.60
2023-07-03T20:52:10.322Z,98.70
2023-07-03T20:54:54.737Z,99.00
2023-07-03T20:57:32.241Z,98.90
2023-07-03T20:59:59.309Z,99.10
2023-07-03T21:02:26.870Z,98.90
2023-07-03T21:04:54.082Z,98.80
2023-07-03T21:07:22.129Z,99.00
2023-07-03T21:09:49.137Z,98.80
2023-07-03T21:12:16.071Z,98.80
2023-07-03T21:14:46.395Z,98.90
2023-07-03T21:17:15.488Z,98.80
2023-07-03T21:19:42.524Z,98.80
2023-07-03T21:22:09.601Z,98.90
2023-07-03T21:24:36.681Z,99.00
2023-07-03T21:27:03.806Z,99.20
2023-07-03T21:29:32.608Z,99.30
2023-07-03T21:31:59.803Z,99.30
2023-07-03T21:34:26.906Z,99.50
2023-07-03T21:36:53.857Z,99.60
2023-07-03T21:39:20.959Z,99.60
2023-07-03T21:41:49.931Z,99.80
2023-07-03T21:44:17.248Z,99.80
2023-07-03T21:46:44.335Z,99.90
2023-07-03T21:49:12.058Z,99.90
2023-07-03T21:51:38.940Z,99.90
2023-07-03T21:54:05.893Z,99.90
2023-07-03T21:56:33.152Z,99.90
2023-07-03T21:59:03.866Z,99.90
2023-07-03T22:01:35.065Z,99.90
2023-07-03T22:04:02.628Z,99.90
2023-07-03T22:06:29.656Z,99.90
2023-07-03T22:08:56.939Z,99.90
2023-07-03T22:11:23.922Z,99.90
2023-07-03T22:13:51.019Z,99.90
2023-07-03T22:16:18.169Z,99.90
2023-07-03T22:18:45.548Z,99.90
2023-07-03T22:21:15.594Z,99.90
2023-07-03T22:23:44.764Z,99.90
2023-07-03T22:26:12.050Z,99.90
2023-07-03T22:28:38.990Z,99.90
2023-07-03T22:31:06.159Z,99.90
2023-07-03T22:33:33.153Z,99.90
2023-07-03T22:36:00.213Z,99.90
2023-07-03T22:38:27.388Z,99.90
2023-07-03T22:40:54.420Z,99.90
2023-07-03T22:43:21.431Z,99.90
2023-07-03T22:45:48.673Z,99.90
2023-07-03T22:48:15.981Z,99.90
2023-07-03T22:50:43.089Z,99.90
2023-07-03T22:53:11.188Z,99.90
2023-07-03T22:55:39.050Z,99.90
2023-07-03T22:58:05.957Z,99.90
2023-07-03T23:00:33.229Z,99.90
2023-07-03T23:03:00.147Z,99.90
2023-07-03T23:05:27.159Z,99.90
2023-07-03T23:07:54.622Z,99.90
2023-07-03T23:10:21.551Z,99.90
2023-07-03T23:12:49.510Z,99.90
2023-07-03T23:15:16.692Z,99.90
2023-07-03T23:17:43.682Z,99.90
2023-07-03T23:20:12.735Z,99.90
2023-07-03T23:22:42.958Z,99.90
2023-07-03T23:25:10.029Z,99.90
2023-07-03T23:27:36.997Z,99.90
2023-07-03T23:30:05.686Z,99.90
2023-07-03T23:32:34.553Z,99.90
2023-07-03T23:35:01.800Z,99.90
2023-07-03T23:37:28.719Z,99.90
2023-07-03T23:39:55.726Z,99.90
2023-07-03T23:42:24.006Z,99.90
2023-07-03T23:44:51.405Z,99.90
2023-07-03T23:47:18.274Z,99.90
2023-07-03T23:49:45.371Z,99.90
2023-07-03T23:52:13.934Z,99.90
2023-07-03T23:54:41.662Z,99.90
2023-07-03T23:57:09.723Z,99.90
2023-07-03T23:59:37.249Z,99.90
